This is the latest recevied weather packets stored in our database for station/object W9GWP. If no packets are shown the sender has not sent any weather packets the latest 10 day(s).
| Time | Temp. | Humidity | Pressure | Rain* | Wind** | Luminosity | Snow |
|---|---|---|---|---|---|---|---|
| 1777560693 | 10° C | 61% | 1045.8 hPa | 0 mm | - | 491 W/m² | - |
| 1777559791 | 9.44° C | 65% | 1046 hPa | 0 mm | - | 451 W/m² | - |
| 1777558891 | 10° C | 69% | 1046 hPa | 0 mm | - | 248 W/m² | - |
| 1777557990 | 10.56° C | 70% | 1046 hPa | 0 mm | - | 318 W/m² | - |
| 1777557086 | 8.89° C | 74% | 1045.8 hPa | 0 mm | - | 214 W/m² | - |
| 1777556184 | 9.44° C | 78% | 1046.1 hPa | 0 mm | - | 141 W/m² | - |
| 1777555279 | 8.89° C | 80% | 1046 hPa | 0 mm | - | 340 W/m² | - |
| 1777554375 | 7.22° C | 91% | 1045.8 hPa | 0 mm | - | 174 W/m² | - |
| 1777553471 | 6.11° C | 94% | 1045.9 hPa | 0 mm | - | 87 W/m² | - |
| 1777552569 | 6.67° C | 95% | 1045.7 hPa | 0 mm | - | 66 W/m² | - |
| 1777551666 | 7.22° C | 96% | 1045.9 hPa | 0 mm | - | 56 W/m² | - |
| 1777550762 | 4.44° C | 97% | 1046.1 hPa | 0 mm | - | 49 W/m² | - |
| 1777549862 | 3.89° C | 97% | 1045.9 hPa | 0 mm | - | 38 W/m² | - |
| 1777548963 | 3.33° C | 98% | 1045.8 hPa | 0 mm | - | 28 W/m² | - |
| 1777548060 | 1.67° C | 98% | 1045.6 hPa | 0 mm | - | 15 W/m² | - |
| 1777547155 | 1.11° C | 98% | 1045.8 hPa | 0 mm | - | 6 W/m² | - |
| 1777546252 | 1.11° C | 98% | 1046 hPa | 0 mm | - | 0 W/m² | - |
| 1777545348 | 1.11° C | 98% | 1045.7 hPa | 0 mm | - | 0 W/m² | - |
| 1777544443 | 1.11° C | 98% | 1045.5 hPa | 0 mm | - | 0 W/m² | - |
| 1777543540 | 1.67° C | 98% | 1045.6 hPa | 0 mm | - | 0 W/m² | - |
| 1777542640 | 1.11° C | 98% | 1045.7 hPa | 0 mm | - | 0 W/m² | - |
| 1777541737 | 1.11° C | 98% | 1045.6 hPa | 0 mm | - | 0 W/m² | - |
| 1777540832 | 1.67° C | 98% | 1045.5 hPa | 0 mm | - | 0 W/m² | - |
| 1777539932 | 1.67° C | 98% | 1045.7 hPa | 0 mm | - | 0 W/m² | - |
| 1777539028 | 2.22° C | 98% | 1045.5 hPa | 0 mm | - | 0 W/m² | - |
* Rain latest hour (hover to see other rain measurements)
** Current wind speed in m/s (hover to see current wind gust speed)